Observations for TREVISO CIV IT-AFB, Italy (LIPH)

LIPH 100220Z AUTO VRB03KT 2500 BR NCD 01/01 Q1010   
LIPH 100150Z AUTO VRB02KT 1800 BR NCD 01/01 Q1010   
LIPH 100120Z AUTO VRB02KT 0250 R07/0450V1000U FG SCT003/// 01/01 Q1010  
LIPH 100120Z AUTO VRB02KT 0250 R07/0450V1000U FG SCT003 01/01 Q1010
LIPH 100050Z AUTO 27003KT 250V340 0100 R07/0350V0650U FG VV001 02/02 Q1009  
LIPH 100020Z AUTO 25003KT 0050 R07/0300N FG VV002 02/02 Q1009   
LIPH 092350Z AUTO VRB02KT 0050 R07/0800U FG VV001 02/02 Q1008   
LIPH 092320Z AUTO 26003KT 220V310 1100 R07/1200U BCFG BKN002/// BKN210/// 03/03 Q1008   
LIPH 092320Z AUTO 26003KT 220V310 1100 R07/1200U BCFG BKN002 BKN210 03/03 Q1008
LIPH 092250Z AUTO VRB02KT 0500 R07/0750U BCFG VV003 02/01 Q1008 
LIPH 092220Z VRB01KT 3000 R07/1400U BCFG NSC 04/04 Q1007
LIPH 092150Z 24003KT 3000 BCFG NSC 03/03 Q1008  
LIPH 092120Z 28002KT 4000 BR NSC 04/04 Q1007
LIPH 092050Z 12003KT 060V200 4000 BCFG NSC 04/04 Q1007  
LIPH 092020Z 20002KT 4000 BCFG NSC 04/04 Q1007  
LIPH 091950Z 26003KT 6000 NSC 06/05 Q1006   
LIPH 091920Z 25002KT CAVOK 06/05 Q1007  
LIPH 091850Z 25004KT CAVOK 07/06 Q1006  
LIPH 091820Z 21004KT CAVOK 07/05 Q1006  
LIPH 091750Z 16003KT 130V190 CAVOK 07/05 Q1006  
LIPH 091720Z 22006KT CAVOK 07/05 Q1006  
LIPH 091650Z VRB01KT CAVOK 08/06 Q1006  
LIPH 091620Z 24006KT CAVOK 09/06 Q1006  
LIPH 091550Z 23006KT CAVOK 09/06 Q1006  
LIPH 091520Z 23006KT CAVOK 10/05 Q1006  
LIPH 091450Z 23004KT CAVOK 11/05 Q1006  
LIPH 091420Z 26003KT 210V340 CAVOK 12/05 Q1006  
LIPH 091350Z VRB02KT CAVOK 12/05 Q1006  
LIPH 091320Z 20003KT CAVOK 12/05 Q1006  
LIPH 091250Z 07007KT CAVOK 11/05 Q1005  
LIPH 091220Z 04006KT 350V070 CAVOK 12/06 Q1006  
LIPH 091150Z 01006KT 330V040 CAVOK 12/06 Q1006  
LIPH 091120Z 03005KT 340V070 CAVOK 11/06 Q1006  
LIPH 091050Z 01004KT 340V040 CAVOK 11/07 Q1006  
LIPH 091020Z 03006KT 360V070 CAVOK 10/06 Q1006  
LIPH 090950Z 04005KT 010V070 CAVOK 10/07 Q1007  
LIPH 090920Z 05006KT 010V070 CAVOK 09/06 Q1007  
LIPH 090850Z 02006KT CAVOK 08/06 Q1007  
LIPH 090820Z 02006KT 360V060 9999 FEW020 07/06 Q1008
LIPH 090750Z 36005KT 9999 SCT015 06/05 Q1007
LIPH 090720Z 01004KT 9999 SCT015 06/05 Q1008
LIPH 090650Z 02005KT 9999 SCT015 05/04 Q1008
LIPH 090620Z 02007KT 9999 BKN015 06/05 Q1008
LIPH 090550Z AUTO 35005KT 9999 BKN017/// 05/05 Q1009
LIPH 090520Z AUTO 36004KT 9999 BKN017/// 05/05 Q1009
LIPH 090520Z AUTO 36004KT 9999 BKN017 05/05 Q1009
LIPH 090450Z AUTO 02006KT 9999 FEW019/// 05/05 Q1009
LIPH 090450Z AUTO 02006KT 9999 FEW019 05/05 Q1009
LIPH 090420Z AUTO 01004KT 5000 BR BKN018/// 05/05 Q1010 
LIPH 090420Z AUTO 01004KT 5000 BR BKN018 05/05 Q1010
LIPH 090350Z AUTO 36003KT 3800 BR BKN017/// 05/04 Q1011 
LIPH 090350Z AUTO 36003KT 3800 BR BKN017 05/04 Q1011
LIPH 090320Z AUTO 01003KT 3200 BR SCT015/// 04/04 Q1011 
LIPH 090320Z AUTO 01003KT 3200 BR SCT015 04/04 Q1011
LIPH 090250Z AUTO 01003KT 3400 BR FEW017/// 04/04 Q1011 
LIPH 090250Z AUTO 01003KT 3400 BR FEW017 04/04 Q1011
LIPH 090220Z AUTO 03003KT 350V100 4900 BR BKN017/// 05/04 Q1012 
LIPH 090220Z AUTO 03003KT 350V100 4900 BR BKN017 05/04 Q1012
LIPH 090150Z AUTO VRB02KT 5000 BR OVC014/// 05/05 Q1013 
LIPH 090150Z AUTO VRB02KT 5000 BR OVC014 05/05 Q1013